Time;durP1;ratioP1;P1;durP2;ratioP2;P2;SDS_P1;SDS_P2;PMS_P1;PMS_P2;Temp;Humidity;BMP_temperature;BMP_pressure;BME280_temperature;BME280_humidity;BME280_pressure;Samples;Min_cycle;Max_cycle;Signal;HPM_P1;HPM_P2
2020/12/17 00:00:30;;;;;;;3.75;3.20;;;8.10;81.50;;;;;;4989321;28;20037;-80
2020/12/17 00:02:56;;;;;;;4.05;2.72;;;8.10;81.50;;;;;;4988896;28;20100;-80
2020/12/17 00:05:23;;;;;;;4.43;2.80;;;8.10;81.50;;;;;;5004435;28;20064;-80
2020/12/17 00:07:49;;;;;;;3.88;3.08;;;8.00;81.30;;;;;;4995954;28;20037;-80
2020/12/17 00:10:15;;;;;;;7.85;2.95;;;8.00;81.30;;;;;;5010776;28;20044;-80
2020/12/17 00:12:43;;;;;;;5.03;2.83;;;8.00;81.30;;;;;;4986535;28;20042;-80
2020/12/17 00:15:12;;;;;;;6.88;3.28;;;8.00;81.30;;;;;;5001892;28;20096;-80
2020/12/17 00:17:52;;;;;;;6.90;3.35;;;8.00;81.30;;;;;;4985317;28;20030;-80
2020/12/17 00:20:20;;;;;;;3.45;2.33;;;8.00;81.40;;;;;;5005075;28;20220;-81
2020/12/17 00:22:46;;;;;;;4.50;2.72;;;7.90;81.20;;;;;;5006644;28;20026;-81
2020/12/17 00:25:15;;;;;;;4.65;2.90;;;7.90;81.20;;;;;;5000473;28;20482;-81
2020/12/17 00:27:42;;;;;;;6.53;3.55;;;7.90;81.30;;;;;;4987067;28;20124;-80
2020/12/17 00:30:11;;;;;;;5.55;2.67;;;7.90;81.30;;;;;;5003718;28;20030;-80
2020/12/17 00:32:38;;;;;;;5.43;3.25;;;7.90;81.40;;;;;;5006887;28;20030;-81
2020/12/17 00:35:05;;;;;;;6.30;3.03;;;7.90;81.40;;;;;;5006579;28;20145;-79
2020/12/17 00:37:32;;;;;;;6.78;3.28;;;7.90;81.40;;;;;;5005081;28;20113;-80
2020/12/17 00:39:59;;;;;;;3.70;2.05;;;7.90;81.40;;;;;;5009965;28;20136;-80
2020/12/17 00:42:24;;;;;;;6.32;3.33;;;7.90;81.40;;;;;;5009987;28;20115;-81
2020/12/17 00:44:51;;;;;;;2.67;2.45;;;7.90;81.50;;;;;;5008725;28;20128;-81
2020/12/17 00:47:17;;;;;;;6.80;3.13;;;7.90;81.50;;;;;;5009229;28;20053;-81
2020/12/17 00:49:43;;;;;;;3.47;2.97;;;7.90;81.40;;;;;;5010080;28;20040;-80
2020/12/17 00:52:10;;;;;;;3.97;2.70;;;8.00;81.60;;;;;;5008344;28;20121;-80
2020/12/17 00:54:40;;;;;;;5.72;2.95;;;8.00;81.60;;;;;;5008549;28;20042;-81
2020/12/17 00:57:09;;;;;;;7.40;3.00;;;7.90;81.40;;;;;;5008682;28;20026;-80
2020/12/17 00:59:35;;;;;;;4.63;2.67;;;8.00;81.60;;;;;;5009526;28;20057;-81
2020/12/17 01:02:01;;;;;;;4.32;2.97;;;8.00;81.60;;;;;;4992080;28;20551;-81
2020/12/17 01:04:27;;;;;;;5.07;2.45;;;8.00;81.60;;;;;;4998537;28;20145;-81
2020/12/17 01:06:53;;;;;;;5.97;2.40;;;8.00;81.60;;;;;;5009261;28;20469;-80
2020/12/17 01:09:19;;;;;;;5.03;2.35;;;8.00;81.60;;;;;;5009656;28;20081;-81
2020/12/17 01:11:45;;;;;;;4.85;2.72;;;8.00;81.60;;;;;;5010030;28;20082;-79
2020/12/17 01:14:11;;;;;;;3.25;2.47;;;8.00;81.60;;;;;;5008453;28;20143;-80
2020/12/17 01:16:37;;;;;;;3.60;2.30;;;8.00;81.60;;;;;;5010420;28;20117;-81
2020/12/17 01:19:03;;;;;;;2.90;2.47;;;8.10;81.80;;;;;;5008127;28;20040;-80
2020/12/17 01:21:29;;;;;;;5.25;2.75;;;8.10;81.80;;;;;;5008101;28;20645;-81
2020/12/17 01:23:55;;;;;;;5.07;3.03;;;8.10;81.80;;;;;;5008386;28;20120;-80
2020/12/17 01:26:21;;;;;;;4.60;2.50;;;8.10;81.80;;;;;;5009339;28;20072;-81
2020/12/17 01:28:47;;;;;;;8.05;2.85;;;8.10;81.70;;;;;;4988648;28;20026;-80
2020/12/17 01:31:14;;;;;;;4.75;2.10;;;8.10;81.80;;;;;;5004506;28;20031;-81
2020/12/17 01:33:41;;;;;;;2.97;2.03;;;8.10;81.70;;;;;;4989836;28;20351;-80
2020/12/17 01:36:11;;;;;;;3.95;2.42;;;8.10;81.70;;;;;;5004846;28;20455;-78
2020/12/17 01:38:39;;;;;;;3.17;2.22;;;8.10;81.70;;;;;;4993912;28;20025;-79
2020/12/17 01:41:06;;;;;;;3.45;2.15;;;8.10;81.80;;;;;;5009652;28;20422;-79
2020/12/17 01:43:43;;;;;;;3.70;2.65;;;8.10;81.80;;;;;;5007684;28;20049;-80
2020/12/17 01:46:11;;;;;;;8.30;2.47;;;8.10;81.80;;;;;;5008698;28;20644;-80
2020/12/17 01:48:38;;;;;;;3.92;2.60;;;8.10;81.70;;;;;;4990283;28;20046;-80
2020/12/17 01:51:05;;;;;;;5.97;2.70;;;8.10;81.70;;;;;;5008926;28;20029;-80
2020/12/17 01:53:36;;;;;;;7.25;2.90;;;8.10;81.70;;;;;;4991140;28;20040;-80
2020/12/17 01:56:06;;;;;;;2.67;2.03;;;8.10;81.70;;;;;;5008520;28;20444;-79
2020/12/17 01:58:39;;;;;;;3.97;2.00;;;8.00;81.60;;;;;;4989639;28;20488;-80
2020/12/17 02:01:07;;;;;;;8.57;3.35;;;8.10;81.80;;;;;;5007513;28;20037;-79
2020/12/17 02:03:33;;;;;;;6.15;2.42;;;8.00;81.60;;;;;;4990148;28;20115;-79
2020/12/17 02:06:02;;;;;;;4.07;2.97;;;8.00;81.70;;;;;;4989916;28;20057;-77
2020/12/17 02:08:36;;;;;;;2.78;1.98;;;8.00;81.70;;;;;;5006245;28;20446;-77
2020/12/17 02:11:03;;;;;;;4.43;3.10;;;8.00;81.70;;;;;;5006954;28;20041;-77
2020/12/17 02:13:33;;;;;;;4.45;2.17;;;8.00;81.70;;;;;;5008569;28;20366;-76
2020/12/17 02:16:01;;;;;;;2.78;1.65;;;8.00;81.70;;;;;;5008848;28;20064;-77
2020/12/17 02:18:27;;;;;;;6.00;2.53;;;7.90;81.60;;;;;;5008139;28;20042;-77
2020/12/17 02:20:54;;;;;;;8.05;3.22;;;8.00;81.80;;;;;;4990552;28;20033;-78
2020/12/17 02:23:22;;;;;;;3.13;2.28;;;7.90;81.60;;;;;;5007090;28;20036;-78
2020/12/17 02:25:49;;;;;;;3.05;2.00;;;7.90;81.60;;;;;;5008244;28;20403;-77
2020/12/17 02:28:20;;;;;;;4.82;2.03;;;7.90;81.70;;;;;;5006876;28;20029;-77
2020/12/17 02:30:46;;;;;;;3.28;2.00;;;7.90;81.70;;;;;;5006857;28;20030;-79
2020/12/17 02:33:13;;;;;;;4.78;2.10;;;7.90;81.60;;;;;;5006486;28;20088;-78
2020/12/17 02:35:39;;;;;;;4.03;2.35;;;7.90;81.70;;;;;;5007287;28;20041;-79
2020/12/17 02:38:06;;;;;;;4.07;2.20;;;7.90;81.70;;;;;;5007593;28;20022;-79
2020/12/17 02:40:33;;;;;;;3.25;1.80;;;7.90;81.70;;;;;;5006494;28;20045;-80
2020/12/17 02:42:59;;;;;;;6.13;2.30;;;7.80;81.60;;;;;;5007080;28;20026;-81
2020/12/17 02:45:26;;;;;;;4.35;1.98;;;7.80;81.60;;;;;;5006673;28;20484;-80
2020/12/17 02:47:52;;;;;;;4.13;2.30;;;7.80;81.60;;;;;;5003896;28;20056;-81
2020/12/17 02:50:18;;;;;;;4.32;2.13;;;7.80;81.60;;;;;;5006622;28;20034;-80
2020/12/17 02:52:44;;;;;;;3.47;2.03;;;7.80;81.60;;;;;;5005814;28;20422;-80
2020/12/17 02:55:11;;;;;;;6.75;2.20;;;7.80;81.60;;;;;;5006098;28;20472;-80
2020/12/17 02:57:37;;;;;;;2.67;1.90;;;7.80;81.60;;;;;;4990812;28;20054;-79
2020/12/17 03:00:08;;;;;;;3.58;1.70;;;7.80;81.60;;;;;;5005914;28;20073;-80
2020/12/17 03:02:35;;;;;;;4.22;2.47;;;7.80;81.60;;;;;;4990965;28;20537;-81
2020/12/17 03:05:01;;;;;;;8.02;2.78;;;7.80;81.60;;;;;;4990547;28;20037;-81
2020/12/17 03:07:27;;;;;;;3.72;1.83;;;7.80;81.60;;;;;;4989694;28;20033;-80
2020/12/17 03:09:53;;;;;;;6.22;2.10;;;7.80;81.60;;;;;;4991073;28;20027;-80
2020/12/17 03:12:20;;;;;;;6.40;1.98;;;7.70;81.40;;;;;;4989933;28;20113;-80
2020/12/17 03:14:46;;;;;;;3.47;2.25;;;7.80;81.60;;;;;;4991453;28;20466;-80
2020/12/17 03:17:12;;;;;;;4.85;2.58;;;7.80;81.60;;;;;;5006240;28;20121;-81
2020/12/17 03:19:38;;;;;;;3.65;2.42;;;7.70;81.40;;;;;;4991552;28;20065;-81
2020/12/17 03:22:04;;;;;;;3.70;1.88;;;7.70;81.40;;;;;;5020055;28;20025;-80
2020/12/17 03:24:30;;;;;;;5.38;1.90;;;7.70;81.40;;;;;;5010793;28;20061;-81
2020/12/17 03:26:56;;;;;;;2.58;2.22;;;7.70;81.40;;;;;;5009445;28;20390;-80
2020/12/17 03:29:22;;;;;;;3.50;1.85;;;7.70;81.50;;;;;;5010821;28;20058;-80
2020/12/17 03:31:48;;;;;;;4.93;2.47;;;7.70;81.50;;;;;;5010595;28;20049;-80
2020/12/17 03:34:14;;;;;;;3.30;2.08;;;7.70;81.50;;;;;;5010362;28;20037;-79
2020/12/17 03:36:39;;;;;;;5.60;2.00;;;7.70;81.50;;;;;;5008994;28;20026;-78
2020/12/17 03:39:05;;;;;;;5.07;2.45;;;7.70;81.50;;;;;;5010762;28;20034;-79
2020/12/17 03:41:31;;;;;;;3.03;2.15;;;7.60;81.30;;;;;;5010191;28;20030;-80
2020/12/17 03:43:58;;;;;;;5.25;1.88;;;7.60;81.30;;;;;;4998512;28;20135;-79
2020/12/17 03:46:24;;;;;;;2.33;1.70;;;7.60;81.40;;;;;;5006033;28;20454;-79
2020/12/17 03:48:50;;;;;;;2.95;1.52;;;7.60;81.40;;;;;;5025092;28;20058;-80
2020/12/17 03:51:16;;;;;;;3.22;1.90;;;7.60;81.40;;;;;;5009997;28;20038;-79
2020/12/17 03:53:42;;;;;;;6.15;2.45;;;7.60;81.40;;;;;;5010135;28;20045;-80
2020/12/17 03:56:08;;;;;;;2.42;1.67;;;7.60;81.40;;;;;;5008902;28;20045;-78
2020/12/17 03:58:34;;;;;;;3.20;2.35;;;7.50;81.20;;;;;;5025218;28;20026;-79
2020/12/17 04:01:00;;;;;;;3.70;1.77;;;7.50;81.20;;;;;;5007256;28;20112;-78
2020/12/17 04:03:26;;;;;;;4.65;2.22;;;7.60;81.40;;;;;;4999058;28;20037;-80
2020/12/17 04:05:51;;;;;;;3.25;1.40;;;7.50;81.20;;;;;;4990715;28;20033;-79
2020/12/17 04:08:17;;;;;;;2.10;1.60;;;7.60;81.40;;;;;;5000959;28;20049;-79
2020/12/17 04:10:43;;;;;;;4.38;1.70;;;7.50;81.30;;;;;;5010202;28;20037;-80
2020/12/17 04:13:09;;;;;;;3.30;2.03;;;7.50;81.20;;;;;;5009661;28;20803;-79
2020/12/17 04:15:35;;;;;;;2.28;1.73;;;7.50;81.30;;;;;;5009431;28;20076;-78
2020/12/17 04:18:01;;;;;;;4.65;2.38;;;7.50;81.30;;;;;;5009639;28;20030;-77
2020/12/17 04:20:27;;;;;;;2.92;2.13;;;7.40;81.10;;;;;;5009610;28;20033;-77
2020/12/17 04:22:53;;;;;;;4.10;2.05;;;7.50;81.30;;;;;;5009521;28;20350;-78
2020/12/17 04:25:19;;;;;;;2.85;2.10;;;7.50;81.30;;;;;;5009979;28;20049;-77
2020/12/17 04:27:45;;;;;;;4.13;2.08;;;7.50;81.30;;;;;;4992106;28;20076;-77
2020/12/17 04:30:11;;;;;;;2.78;2.00;;;7.40;81.20;;;;;;5009870;28;20044;-77
2020/12/17 04:32:36;;;;;;;11.05;3.00;;;7.50;81.40;;;;;;5009691;28;20030;-78
2020/12/17 04:35:03;;;;;;;4.07;1.90;;;7.40;81.20;;;;;;5009371;28;20077;-77
2020/12/17 04:37:29;;;;;;;2.72;1.77;;;7.40;81.20;;;;;;5009700;28;20130;-77
2020/12/17 04:39:55;;;;;;;6.15;1.88;;;7.40;81.70;;;;;;5025052;28;20029;-78
2020/12/17 04:42:22;;;;;;;4.30;1.60;;;7.40;81.20;;;;;;5009681;28;20034;-78
2020/12/17 04:44:49;;;;;;;4.63;1.98;;;7.40;81.20;;;;;;5009956;28;20045;-78
2020/12/17 04:47:20;;;;;;;2.80;1.83;;;7.40;81.20;;;;;;5009864;28;20044;-78
2020/12/17 04:49:52;;;;;;;3.97;1.83;;;7.40;81.20;;;;;;5008236;28;20121;-78
2020/12/17 04:52:21;;;;;;;2.85;1.65;;;7.40;81.30;;;;;;5009550;28;20058;-79
2020/12/17 04:54:47;;;;;;;3.20;1.75;;;7.50;81.50;;;;;;5009489;28;21097;-79
2020/12/17 04:57:14;;;;;;;4.38;2.08;;;7.50;81.50;;;;;;5009897;28;20618;-79
2020/12/17 04:59:42;;;;;;;3.88;2.00;;;7.50;81.50;;;;;;5009753;28;20065;-80
2020/12/17 05:02:09;;;;;;;3.13;1.83;;;7.50;81.40;;;;;;5008347;28;20343;-79
2020/12/17 05:04:38;;;;;;;3.10;1.77;;;7.50;81.40;;;;;;4991911;28;20469;-78
2020/12/17 05:07:13;;;;;;;2.58;1.65;;;7.50;81.40;;;;;;4992031;28;20034;-80
2020/12/17 05:09:42;;;;;;;4.30;1.80;;;7.50;81.30;;;;;;5009761;28;20080;-78
2020/12/17 05:12:10;;;;;;;6.95;2.55;;;7.50;81.30;;;;;;5009715;28;20104;-79
2020/12/17 05:14:36;;;;;;;4.70;2.00;;;7.50;81.30;;;;;;5024553;28;20041;-78
2020/12/17 05:17:03;;;;;;;5.88;1.95;;;7.50;81.30;;;;;;5008246;28;20121;-79
2020/12/17 05:19:29;;;;;;;3.63;1.67;;;7.50;81.30;;;;;;5009570;28;20038;-78
2020/12/17 05:21:57;;;;;;;4.82;1.70;;;7.50;81.30;;;;;;5008010;28;20469;-78
2020/12/17 05:24:25;;;;;;;2.95;2.10;;;7.50;81.30;;;;;;5008901;28;20030;-78
2020/12/17 05:26:52;;;;;;;4.25;1.95;;;7.40;81.10;;;;;;5013194;28;20044;-78
2020/12/17 05:29:19;;;;;;;3.55;2.42;;;7.40;81.10;;;;;;5011415;28;20105;-80
2020/12/17 05:31:46;;;;;;;7.32;2.22;;;7.40;81.20;;;;;;4995516;28;20037;-80
2020/12/17 05:34:13;;;;;;;3.00;1.88;;;7.40;81.20;;;;;;5027932;28;20117;-79
2020/12/17 05:36:44;;;;;;;4.38;1.95;;;7.30;81.00;;;;;;5012851;28;20041;-79
2020/12/17 05:39:24;;;;;;;3.38;1.77;;;7.40;81.20;;;;;;5011507;28;20037;-80
2020/12/17 05:41:52;;;;;;;1.55;1.35;;;7.30;81.00;;;;;;5012286;28;20371;-78
2020/12/17 05:44:29;;;;;;;4.07;1.90;;;7.30;81.50;;;;;;5011734;28;20038;-78
2020/12/17 05:46:56;;;;;;;2.20;1.50;;;7.30;81.10;;;;;;5009497;28;20045;-79
2020/12/17 05:49:25;;;;;;;4.15;1.90;;;7.30;81.10;;;;;;4999572;28;20041;-79
2020/12/17 05:52:15;;;;;;;4.85;1.75;;;7.30;81.10;;;;;;4973006;28;20050;-78
2020/12/17 05:54:58;;;;;;;2.50;1.73;;;7.30;81.10;;;;;;5004660;28;20362;-79
2020/12/17 05:57:24;;;;;;;4.93;1.88;;;7.20;81.00;;;;;;5001964;28;20037;-79
2020/12/17 06:00:01;;;;;;;4.00;1.70;;;7.20;81.00;;;;;;5001716;28;20030;-79
2020/12/17 06:02:35;;;;;;;3.05;2.00;;;7.20;81.10;;;;;;5017652;28;20122;-80
2020/12/17 06:05:10;;;;;;;2.97;1.98;;;7.30;81.20;;;;;;4999308;28;20453;-78
2020/12/17 06:07:47;;;;;;;3.55;1.50;;;7.30;81.20;;;;;;4997299;28;20030;-79
2020/12/17 06:10:25;;;;;;;6.80;1.67;;;7.30;81.20;;;;;;5004082;28;20026;-79
2020/12/17 06:13:02;;;;;;;2.08;1.63;;;7.30;81.20;;;;;;5002918;28;20056;-78
2020/12/17 06:15:32;;;;;;;3.25;1.45;;;7.30;81.20;;;;;;4995778;28;20061;-77
2020/12/17 06:18:02;;;;;;;4.63;1.70;;;7.30;81.20;;;;;;5005649;28;20036;-78
2020/12/17 06:20:31;;;;;;;2.30;1.92;;;7.30;81.10;;;;;;4997168;28;20026;-81
2020/12/17 06:23:03;;;;;;;6.72;2.15;;;7.30;81.20;;;;;;5004228;28;20077;-80
2020/12/17 06:25:32;;;;;;;6.15;2.00;;;7.30;81.10;;;;;;4993851;28;20117;-77
2020/12/17 06:27:58;;;;;;;4.88;1.98;;;7.30;81.10;;;;;;5005355;28;20084;-77
2020/12/17 06:30:27;;;;;;;5.35;2.30;;;7.30;81.10;;;;;;4999525;28;20144;-79
2020/12/17 06:32:55;;;;;;;5.22;2.15;;;7.30;81.10;;;;;;4997415;28;20543;-78
2020/12/17 06:35:39;;;;;;;4.00;2.13;;;7.30;81.10;;;;;;5003203;28;20037;-79
2020/12/17 06:38:06;;;;;;;;;;;7.30;81.10;;;;;;5005631;28;20050;-80
2020/12/17 06:40:32;;;;;;;4.28;1.70;;;7.30;81.10;;;;;;5000696;28;19920;-78
2020/12/17 06:42:58;;;;;;;2.20;1.60;;;7.20;80.90;;;;;;4996123;28;20030;-78
2020/12/17 06:45:25;;;;;;;4.00;2.05;;;7.20;81.40;;;;;;5002238;28;20037;-81
2020/12/17 06:47:51;;;;;;;1.48;1.30;;;7.20;80.90;;;;;;5006285;28;20053;-80
2020/12/17 06:50:22;;;;;;;4.15;1.83;;;7.20;80.90;;;;;;4989118;28;20481;-78
2020/12/17 06:53:07;;;;;;;3.13;1.85;;;7.20;81.00;;;;;;5002288;28;20037;-77
2020/12/17 06:55:48;;;;;;;2.83;1.35;;;7.20;81.00;;;;;;4989179;28;20049;-77
2020/12/17 06:58:24;;;;;;;3.45;1.45;;;7.20;81.00;;;;;;5001324;28;20061;-77
2020/12/17 07:00:52;;;;;;;2.00;1.48;;;7.10;80.80;;;;;;4995835;28;20041;-77
2020/12/17 07:03:42;;;;;;;3.65;2.25;;;7.20;81.00;;;;;;4991057;28;20030;-77
2020/12/17 07:06:12;;;;;;;2.70;1.77;;;7.10;80.90;;;;;;4994569;28;20394;-78
2020/12/17 07:08:38;;;;;;;5.85;2.08;;;7.10;80.90;;;;;;5003958;28;20121;-76
2020/12/17 07:11:04;;;;;;;4.22;2.17;;;7.10;80.90;;;;;;4989776;28;20025;-77
2020/12/17 07:13:43;;;;;;;2.75;1.80;;;7.10;80.90;;;;;;4997414;28;20084;-79
2020/12/17 07:16:19;;;;;;;2.97;2.28;;;7.10;80.90;;;;;;4997193;28;20073;-73
2020/12/17 07:18:45;;;;;;;3.38;2.30;;;7.10;80.90;;;;;;4999485;28;20052;-73
2020/12/17 07:21:11;;;;;;;4.20;2.30;;;7.10;80.90;;;;;;5009975;28;20038;-74
2020/12/17 07:23:41;;;;;;;2.90;2.00;;;7.10;80.90;;;;;;5021089;28;20033;-74
2020/12/17 07:26:10;;;;;;;3.70;1.73;;;7.00;80.70;;;;;;5004024;28;20034;-75
2020/12/17 07:28:36;;;;;;;3.25;1.85;;;7.00;80.80;;;;;;5005620;28;20064;-74
2020/12/17 07:31:02;;;;;;;2.72;1.80;;;7.00;80.80;;;;;;5021076;28;20064;-74
2020/12/17 07:33:37;;;;;;;4.53;2.40;;;7.00;80.80;;;;;;5020289;28;20136;-74
2020/12/17 07:36:04;;;;;;;2.90;2.05;;;6.90;80.60;;;;;;5006907;28;20050;-73
2020/12/17 07:38:30;;;;;;;5.50;2.47;;;6.90;80.60;;;;;;5004335;28;20077;-74
2020/12/17 07:40:57;;;;;;;4.82;2.08;;;6.90;80.60;;;;;;5006199;28;20041;-74
2020/12/17 07:43:24;;;;;;;6.53;2.20;;;6.90;80.70;;;;;;5005598;28;20110;-72
2020/12/17 07:45:57;;;;;;;2.75;1.98;;;6.80;80.50;;;;;;5004038;28;20247;-72
2020/12/17 07:48:42;;;;;;;3.28;1.80;;;6.80;80.50;;;;;;5002916;28;20444;-76
2020/12/17 07:51:15;;;;;;;3.88;2.22;;;6.80;81.10;;;;;;5004715;28;20033;-76
2020/12/17 07:53:42;;;;;;;4.15;2.22;;;6.80;80.60;;;;;;5004979;28;20029;-78
2020/12/17 07:56:09;;;;;;;2.50;1.80;;;6.80;80.60;;;;;;5004749;28;20128;-76
2020/12/17 07:58:39;;;;;;;6.57;2.47;;;6.80;80.60;;;;;;5004388;28;20272;-75
2020/12/17 08:01:06;;;;;;;3.20;1.80;;;6.80;80.70;;;;;;5004563;28;20034;-74
2020/12/17 08:03:47;;;;;;;3.95;2.30;;;6.70;80.50;;;;;;5003444;28;20025;-74
2020/12/17 08:06:21;;;;;;;8.43;2.70;;;6.70;80.50;;;;;;5003071;28;20029;-74
2020/12/17 08:08:55;;;;;;;5.13;1.90;;;6.70;80.50;;;;;;5004578;28;20316;-76
2020/12/17 08:11:22;;;;;;;3.35;2.33;;;6.80;80.70;;;;;;5004243;28;20033;-76
2020/12/17 08:14:03;;;;;;;5.45;2.47;;;6.70;80.50;;;;;;5003053;28;20033;-75
2020/12/17 08:16:30;;;;;;;5.05;2.22;;;6.80;80.70;;;;;;5004515;28;20261;-75
2020/12/17 08:18:57;;;;;;;3.92;2.25;;;6.80;80.70;;;;;;5004942;28;20114;-76
2020/12/17 08:21:25;;;;;;;2.72;1.88;;;6.80;80.70;;;;;;5004597;28;20030;-75
2020/12/17 08:23:51;;;;;;;6.32;2.47;;;6.80;80.70;;;;;;5004846;28;20088;-76
2020/12/17 08:26:20;;;;;;;2.85;1.63;;;6.80;80.70;;;;;;5005681;28;20045;-75
2020/12/17 08:28:47;;;;;;;7.53;2.28;;;6.80;80.70;;;;;;5005650;28;20113;-76
2020/12/17 08:31:21;;;;;;;4.43;2.03;;;6.90;80.80;;;;;;5005639;28;20030;-74
2020/12/17 08:33:52;;;;;;;3.17;2.53;;;6.90;80.80;;;;;;5004843;28;20061;-76
2020/12/17 08:36:22;;;;;;;4.80;1.70;;;6.90;80.80;;;;;;5005743;28;20042;-75
2020/12/17 08:39:07;;;;;;;2.38;1.65;;;6.90;80.80;;;;;;5004382;28;20445;-76
2020/12/17 08:41:52;;;;;;;5.68;2.25;;;7.00;81.00;;;;;;5006145;28;20054;-76
2020/12/17 08:44:34;;;;;;;6.18;2.40;;;7.00;80.90;;;;;;5004537;28;20680;-76
2020/12/17 08:47:05;;;;;;;3.60;2.13;;;7.00;80.80;;;;;;5005874;28;20201;-76
2020/12/17 08:49:32;;;;;;;4.53;1.73;;;7.00;80.80;;;;;;5004358;28;20033;-76
2020/12/17 08:51:59;;;;;;;5.13;1.95;;;7.00;80.80;;;;;;4987858;28;20053;-76
2020/12/17 08:54:26;;;;;;;5.30;1.92;;;7.10;81.00;;;;;;5005907;28;20658;-75
2020/12/17 08:57:09;;;;;;;4.47;2.35;;;7.10;81.00;;;;;;5004390;28;20049;-76
2020/12/17 08:59:36;;;;;;;4.15;2.25;;;7.00;80.80;;;;;;5006740;28;20038;-77
2020/12/17 09:02:02;;;;;;;4.20;2.03;;;7.10;80.90;;;;;;5008421;28;20030;-75
2020/12/17 09:04:29;;;;;;;5.57;2.10;;;7.20;81.10;;;;;;5009519;28;20099;-75
2020/12/17 09:06:59;;;;;;;5.22;2.00;;;7.20;81.10;;;;;;4992115;28;20034;-75
2020/12/17 09:09:27;;;;;;;7.15;2.28;;;7.20;81.10;;;;;;4991479;28;20072;-75
2020/12/17 09:11:55;;;;;;;6.75;1.92;;;7.20;81.10;;;;;;5008186;28;20037;-76
2020/12/17 09:14:35;;;;;;;6.40;2.72;;;7.20;81.10;;;;;;5008060;28;20481;-75
2020/12/17 09:17:12;;;;;;;6.00;2.38;;;7.30;81.30;;;;;;5007540;28;20456;-75
2020/12/17 09:19:38;;;;;;;5.40;2.70;;;7.20;81.60;;;;;;5008891;28;20033;-77
2020/12/17 09:22:04;;;;;;;4.97;2.25;;;7.30;81.20;;;;;;5009207;28;20429;-75
2020/12/17 09:24:38;;;;;;;7.28;2.05;;;7.30;81.20;;;;;;5007665;28;20042;-76
2020/12/17 09:27:21;;;;;;;3.50;1.70;;;7.30;81.20;;;;;;5008231;28;20084;-77
2020/12/17 09:30:18;;;;;;;3.45;2.03;;;7.30;81.20;;;;;;5007280;28;20025;-76
2020/12/17 09:32:56;;;;;;;4.45;2.15;;;7.30;81.10;;;;;;5007465;28;20377;-76
2020/12/17 09:35:28;;;;;;;6.25;2.72;;;7.30;81.10;;;;;;5008339;28;20156;-77
2020/12/17 09:38:02;;;;;;;6.35;2.53;;;7.40;81.30;;;;;;5008671;28;20041;-77
2020/12/17 09:40:29;;;;;;;3.40;2.20;;;7.40;81.30;;;;;;5007754;28;20057;-76
2020/12/17 09:43:12;;;;;;;7.32;1.92;;;7.40;81.30;;;;;;5008767;28;20584;-77
2020/12/17 09:45:45;;;;;;;12.18;2.10;;;7.50;81.50;;;;;;5009261;28;20034;-79
2020/12/17 09:48:17;;;;;;;10.13;2.28;;;7.50;81.50;;;;;;5006969;28;20547;-76
2020/12/17 09:51:08;;;;;;;7.38;2.65;;;7.60;82.00;;;;;;5006980;28;20276;-76
2020/12/17 09:53:40;;;;;;;10.00;3.25;;;7.60;82.10;;;;;;5008811;28;20175;-75
2020/12/17 09:56:11;;;;;;;8.32;2.53;;;7.70;82.10;;;;;;4981908;28;20446;-76
2020/12/17 09:58:45;;;;;;;8.35;2.15;;;7.80;82.20;;;;;;5007369;28;20390;-75
2020/12/17 10:01:12;;;;;;;7.40;2.13;;;7.90;82.20;;;;;;5008269;28;20135;-75
2020/12/17 10:03:39;;;;;;;11.48;2.75;;;8.00;82.30;;;;;;5007198;28;20343;-75
2020/12/17 10:06:05;;;;;;;8.05;2.60;;;8.00;82.30;;;;;;5007703;28;20130;-74
2020/12/17 10:08:32;;;;;;;8.02;2.40;;;8.00;82.20;;;;;;5007722;28;20041;-74
2020/12/17 10:10:59;;;;;;;7.03;2.35;;;8.10;82.40;;;;;;5007880;28;20184;-74
2020/12/17 10:13:25;;;;;;;7.20;2.40;;;8.10;82.40;;;;;;5006849;28;20092;-75
2020/12/17 10:15:51;;;;;;;5.72;2.00;;;8.10;82.40;;;;;;5007596;28;20049;-74
2020/12/17 10:18:17;;;;;;;6.40;2.45;;;8.10;82.40;;;;;;5006514;28;20026;-74
2020/12/17 10:20:43;;;;;;;7.55;2.25;;;8.10;82.40;;;;;;5007423;28;20045;-74
2020/12/17 10:23:09;;;;;;;5.28;2.03;;;8.20;82.60;;;;;;5008433;28;20037;-75
2020/12/17 10:25:35;;;;;;;7.72;3.38;;;8.20;82.60;;;;;;5006719;28;20392;-74
2020/12/17 10:28:01;;;;;;;4.85;2.40;;;8.30;82.90;;;;;;5007608;28;20042;-75
2020/12/17 10:30:27;;;;;;;4.88;2.50;;;8.30;82.90;;;;;;5006373;28;20053;-75
2020/12/17 10:32:55;;;;;;;9.60;2.80;;;8.40;83.10;;;;;;5006996;28;20547;-74
2020/12/17 10:35:22;;;;;;;6.68;2.53;;;8.40;83.00;;;;;;5005801;28;20133;-76
2020/12/17 10:37:48;;;;;;;8.70;2.97;;;8.50;83.20;;;;;;4989253;28;20028;-77
2020/12/17 10:40:14;;;;;;;5.22;2.50;;;8.60;83.20;;;;;;4988892;28;20378;-78
2020/12/17 10:42:43;;;;;;;4.78;2.50;;;8.60;83.20;;;;;;5005554;28;20434;-78
2020/12/17 10:45:10;;;;;;;6.55;2.25;;;8.60;83.10;;;;;;5006595;28;20041;-78
2020/12/17 10:47:36;;;;;;;6.00;2.10;;;8.60;83.10;;;;;;5005109;28;20097;-78
2020/12/17 10:50:07;;;;;;;6.97;2.38;;;8.60;83.10;;;;;;4989582;28;20025;-78
2020/12/17 10:52:34;;;;;;;6.38;2.22;;;8.70;83.30;;;;;;4989388;28;20494;-78
2020/12/17 10:55:00;;;;;;;7.63;2.80;;;8.70;83.30;;;;;;5007637;28;20046;-77
2020/12/17 10:57:26;;;;;;;5.82;2.85;;;8.70;83.30;;;;;;4989323;28;20026;-78
2020/12/17 10:59:52;;;;;;;4.85;2.40;;;8.70;83.30;;;;;;5006888;28;20077;-78
2020/12/17 11:02:18;;;;;;;4.38;2.63;;;8.70;83.30;;;;;;5007530;28;20108;-78
2020/12/17 11:04:44;;;;;;;5.00;2.50;;;8.80;83.50;;;;;;5006104;28;20527;-79
2020/12/17 11:07:10;;;;;;;6.10;2.40;;;8.80;83.50;;;;;;5007110;28;20026;-79
2020/12/17 11:09:36;;;;;;;8.85;2.95;;;8.80;83.50;;;;;;5006140;28;20057;-79
2020/12/17 11:12:02;;;;;;;6.88;1.90;;;8.80;83.50;;;;;;5002898;28;20022;-79
2020/12/17 11:14:28;;;;;;;6.38;2.20;;;8.90;83.70;;;;;;5011398;28;20026;-77
2020/12/17 11:16:55;;;;;;;6.22;2.40;;;8.90;83.70;;;;;;4970027;28;20038;-79
2020/12/17 11:19:21;;;;;;;9.10;2.25;;;9.00;83.90;;;;;;5000756;28;20072;-76
2020/12/17 11:21:47;;;;;;;12.13;2.92;;;9.00;83.80;;;;;;5006300;28;20496;-76
2020/12/17 11:24:14;;;;;;;7.05;2.67;;;9.00;83.80;;;;;;5005252;28;20045;-76
2020/12/17 11:26:46;;;;;;;5.38;2.17;;;9.10;84.00;;;;;;5006374;28;20377;-78
2020/12/17 11:29:12;;;;;;;12.85;2.67;;;9.10;83.90;;;;;;5005246;28;20030;-76
2020/12/17 11:31:39;;;;;;;6.82;2.78;;;9.20;84.10;;;;;;5006888;28;20038;-75
2020/12/17 11:34:05;;;;;;;14.18;2.88;;;9.30;84.20;;;;;;4988714;28;20049;-75
2020/12/17 11:36:31;;;;;;;11.05;2.97;;;9.30;84.20;;;;;;5004697;28;20526;-77
2020/12/17 11:38:57;;;;;;;9.52;2.90;;;9.30;84.10;;;;;;5005307;28;20033;-75
2020/12/17 11:41:23;;;;;;;6.50;2.47;;;9.40;84.30;;;;;;5005625;28;20022;-76
2020/12/17 11:43:49;;;;;;;4.85;2.47;;;9.50;84.40;;;;;;4989243;28;20470;-76
2020/12/17 11:46:20;;;;;;;9.55;2.67;;;9.60;84.60;;;;;;5005188;28;20044;-76
2020/12/17 11:48:46;;;;;;;12.80;2.35;;;9.60;84.50;;;;;;5005193;28;20058;-76
2020/12/17 11:51:16;;;;;;;8.32;3.38;;;9.60;84.50;;;;;;5021994;28;20057;-76
2020/12/17 11:53:42;;;;;;;7.63;2.88;;;9.70;84.60;;;;;;5021279;28;20125;-77
2020/12/17 11:56:12;;;;;;;11.57;2.78;;;9.70;84.60;;;;;;5006172;28;20041;-76
2020/12/17 11:58:39;;;;;;;8.77;2.53;;;9.80;84.80;;;;;;5020825;28;20025;-77
2020/12/17 12:01:06;;;;;;;6.90;3.13;;;9.90;84.90;;;;;;5005586;28;20068;-76
2020/12/17 12:03:32;;;;;;;9.63;4.15;;;9.90;84.90;;;;;;5004935;28;20030;-76
2020/12/17 12:05:58;;;;;;;6.10;3.03;;;10.00;85.00;;;;;;4988945;28;20026;-76
2020/12/17 12:08:24;;;;;;;5.95;3.15;;;10.10;85.20;;;;;;5004710;28;20030;-75
2020/12/17 12:10:51;;;;;;;12.57;3.60;;;10.10;85.10;;;;;;5005174;28;20112;-77
2020/12/17 12:13:17;;;;;;;6.47;3.38;;;10.20;85.30;;;;;;5004806;28;20504;-76
2020/12/17 12:15:43;;;;;;;7.40;3.13;;;10.20;85.30;;;;;;4988356;28;20096;-76
2020/12/17 12:18:09;;;;;;;10.48;3.33;;;10.30;85.40;;;;;;4988665;28;20061;-77
2020/12/17 12:20:34;;;;;;;9.00;3.03;;;10.40;85.50;;;;;;4989062;28;20116;-77
2020/12/17 12:23:01;;;;;;;6.10;2.35;;;10.40;85.50;;;;;;5006009;28;20422;-77
2020/12/17 12:25:27;;;;;;;6.15;2.65;;;10.50;85.60;;;;;;5004728;28;20034;-77
2020/12/17 12:27:53;;;;;;;5.18;2.63;;;10.50;85.50;;;;;;4988401;28;20032;-76
2020/12/17 12:30:19;;;;;;;4.68;2.20;;;10.60;85.60;;;;;;4994057;28;20886;-77
2020/12/17 12:32:45;;;;;;;10.35;2.97;;;10.70;85.80;;;;;;5002135;28;20030;-77
2020/12/17 12:35:11;;;;;;;5.03;2.95;;;10.70;85.80;;;;;;5008388;28;20452;-76
2020/12/17 12:37:37;;;;;;;7.63;2.83;;;10.80;85.90;;;;;;5023644;28;20126;-77
2020/12/17 12:40:03;;;;;;;6.50;2.75;;;10.80;85.80;;;;;;5008188;28;20121;-76
2020/12/17 12:42:29;;;;;;;4.32;2.13;;;10.90;86.00;;;;;;4992455;28;20176;-78
2020/12/17 12:44:55;;;;;;;7.80;2.58;;;10.90;85.90;;;;;;5008697;28;20041;-78
2020/12/17 12:47:22;;;;;;;8.82;3.65;;;11.00;86.10;;;;;;4991727;28;20040;-77
2020/12/17 12:49:48;;;;;;;4.53;2.40;;;11.10;86.20;;;;;;5008581;28;20038;-77
2020/12/17 12:52:14;;;;;;;7.97;2.83;;;11.10;86.20;;;;;;5007362;28;20030;-78
2020/12/17 12:54:40;;;;;;;5.18;2.53;;;11.10;86.20;;;;;;5007463;28;20038;-78
2020/12/17 12:57:06;;;;;;;6.70;2.83;;;11.20;86.30;;;;;;5008466;28;20367;-78
2020/12/17 12:59:35;;;;;;;8.85;2.42;;;11.20;86.20;;;;;;5007536;28;20552;-78
2020/12/17 13:02:01;;;;;;;7.82;2.75;;;11.20;86.20;;;;;;4992436;28;20434;-77